createdAt,value
2023-03-22T00:01:58.748Z,8.70
2023-03-22T00:07:06.246Z,8.72
2023-03-22T00:12:10.374Z,8.71
2023-03-22T00:17:14.244Z,8.65
2023-03-22T00:22:25.689Z,8.54
2023-03-22T00:27:36.682Z,8.42
2023-03-22T00:32:38.829Z,8.28
2023-03-22T00:37:41.490Z,8.20
2023-03-22T00:42:52.419Z,8.10
2023-03-22T00:48:02.504Z,8.01
2023-03-22T00:53:07.112Z,7.93
2023-03-22T00:58:32.763Z,7.86
2023-03-22T01:03:41.947Z,7.79
2023-03-22T01:08:45.064Z,7.70
2023-03-22T01:13:48.035Z,7.63
2023-03-22T01:18:51.747Z,7.56
2023-03-22T01:23:53.837Z,7.45
2023-03-22T01:28:56.441Z,7.37
2023-03-22T01:33:58.566Z,7.31
2023-03-22T01:39:03.789Z,7.23
2023-03-22T01:44:12.696Z,7.15
2023-03-22T01:49:32.416Z,7.07
2023-03-22T01:54:45.968Z,6.99
2023-03-22T02:00:34.054Z,6.88
2023-03-22T02:05:47.843Z,6.77
2023-03-22T02:10:56.991Z,6.71
2023-03-22T02:16:49.716Z,6.70
2023-03-22T02:22:16.538Z,6.71
2023-03-22T02:28:02.927Z,6.71
2023-03-22T02:33:32.002Z,6.67
2023-03-22T02:39:05.359Z,6.58
2023-03-22T02:44:43.395Z,6.48
2023-03-22T02:49:57.004Z,6.39
2023-03-22T02:55:21.094Z,6.37
2023-03-22T03:00:30.590Z,6.39
2023-03-22T03:05:36.298Z,6.43
2023-03-22T03:10:52.799Z,6.48
2023-03-22T03:15:59.730Z,6.58
2023-03-22T03:21:36.622Z,6.69
2023-03-22T03:27:03.380Z,6.84
2023-03-22T03:32:32.738Z,7.01
2023-03-22T03:37:47.207Z,7.09
2023-03-22T03:42:53.244Z,7.05
2023-03-22T03:48:04.263Z,6.99
2023-03-22T03:53:13.952Z,6.97
2023-03-22T03:58:16.833Z,7.01
2023-03-22T04:03:19.545Z,7.01
2023-03-22T04:08:45.896Z,6.99
2023-03-22T04:13:52.642Z,7.05
2023-03-22T04:18:56.972Z,7.05
2023-03-22T04:23:59.561Z,6.92
2023-03-22T04:29:26.310Z,6.85
2023-03-22T04:34:36.104Z,6.84
2023-03-22T04:39:40.609Z,6.94
2023-03-22T04:45:05.354Z,7.03
2023-03-22T04:50:09.692Z,7.11
2023-03-22T04:55:38.936Z,7.22
2023-03-22T05:00:44.093Z,7.28
2023-03-22T05:05:53.437Z,7.28
2023-03-22T05:11:01.830Z,7.29
2023-03-22T05:16:06.167Z,7.44
2023-03-22T05:21:35.493Z,7.60
2023-03-22T05:27:06.289Z,7.79
2023-03-22T05:32:16.102Z,7.94
2023-03-22T05:37:21.211Z,8.11
2023-03-22T05:42:32.764Z,8.29
2023-03-22T05:47:36.203Z,8.47
2023-03-22T05:52:46.654Z,8.66
2023-03-22T05:58:05.196Z,8.85
2023-03-22T06:03:18.514Z,9.06
2023-03-22T06:08:27.307Z,9.28
2023-03-22T06:13:30.042Z,9.43
2023-03-22T06:18:33.378Z,9.57
2023-03-22T06:23:44.031Z,9.71
2023-03-22T06:28:49.093Z,9.81
2023-03-22T06:34:14.440Z,9.91
2023-03-22T06:39:36.436Z,10.06
2023-03-22T06:44:46.286Z,10.25
2023-03-22T06:50:03.170Z,10.45
2023-03-22T06:55:29.965Z,10.73
2023-03-22T07:00:34.254Z,10.95
2023-03-22T07:05:36.651Z,11.14
2023-03-22T07:10:40.121Z,11.37
2023-03-22T07:15:56.542Z,11.71
2023-03-22T07:21:15.449Z,12.03
2023-03-22T07:26:18.763Z,12.35
2023-03-22T07:31:23.779Z,12.59
2023-03-22T07:36:38.896Z,12.80
2023-03-22T07:41:43.477Z,13.05
2023-03-22T07:47:15.575Z,13.30
2023-03-22T07:52:37.325Z,13.66
2023-03-22T07:57:39.855Z,13.99
2023-03-22T08:02:46.028Z,14.42
2023-03-22T08:08:09.875Z,14.60
2023-03-22T08:13:12.492Z,14.37
2023-03-22T08:18:15.564Z,14.30
2023-03-22T08:23:22.609Z,14.39
2023-03-22T08:28:47.318Z,14.62
2023-03-22T08:33:50.358Z,14.86
2023-03-22T08:38:53.253Z,15.04
2023-03-22T08:43:58.606Z,15.14
2023-03-22T08:49:06.095Z,15.30
2023-03-22T08:54:16.621Z,15.46
2023-03-22T08:59:28.408Z,15.58
2023-03-22T09:05:09.266Z,15.66
2023-03-22T09:10:12.276Z,15.85
2023-03-22T09:15:17.078Z,16.14
2023-03-22T09:20:26.420Z,16.47
2023-03-22T09:25:42.427Z,16.77
2023-03-22T09:31:02.947Z,16.98
2023-03-22T09:36:13.210Z,17.11
2023-03-22T09:41:39.794Z,17.24
2023-03-22T09:46:49.375Z,17.52
2023-03-22T09:51:53.538Z,17.80
2023-03-22T09:57:15.657Z,18.00
2023-03-22T10:02:43.586Z,18.00
2023-03-22T10:08:06.930Z,17.98
2023-03-22T10:13:31.635Z,18.03
2023-03-22T10:18:43.483Z,18.09
2023-03-22T10:23:57.910Z,18.13
2023-03-22T10:29:11.809Z,18.14
2023-03-22T10:34:28.160Z,18.14
2023-03-22T10:39:35.766Z,18.04
2023-03-22T10:44:50.689Z,18.06
2023-03-22T10:50:03.592Z,18.11
2023-03-22T10:55:11.049Z,17.91
2023-03-22T11:00:17.534Z,17.93
2023-03-22T11:05:28.299Z,18.06
2023-03-22T11:10:34.989Z,17.76
2023-03-22T11:16:01.400Z,17.62
2023-03-22T11:21:11.431Z,17.70
2023-03-22T11:26:28.583Z,17.78
2023-03-22T11:31:57.472Z,17.84
2023-03-22T11:37:01.282Z,17.76
2023-03-22T11:42:06.701Z,17.69
2023-03-22T11:47:22.173Z,17.80
2023-03-22T11:52:34.253Z,17.91
2023-03-22T11:57:37.924Z,18.05
2023-03-22T12:02:54.946Z,18.41
2023-03-22T12:08:16.095Z,18.70
2023-03-22T12:13:27.736Z,18.63
2023-03-22T12:18:44.531Z,18.69
2023-03-22T12:23:50.008Z,18.65
2023-03-22T12:29:18.273Z,18.92
2023-03-22T12:34:25.894Z,19.14
2023-03-22T12:39:34.946Z,19.12
2023-03-22T12:45:05.129Z,18.97
2023-03-22T12:50:40.538Z,19.03
2023-03-22T12:55:47.639Z,19.16
2023-03-22T13:01:17.797Z,19.11
2023-03-22T13:07:05.076Z,19.16
2023-03-22T13:12:18.939Z,19.19
2023-03-22T13:17:43.048Z,19.06
2023-03-22T13:23:13.976Z,18.95
2023-03-22T13:28:27.286Z,19.22
2023-03-22T13:33:34.874Z,19.30
2023-03-22T13:38:42.980Z,19.08
2023-03-22T13:44:46.031Z,19.22
2023-03-22T13:50:02.227Z,19.18
2023-03-22T13:55:36.803Z,19.07
2023-03-22T14:00:44.771Z,18.95
2023-03-22T14:06:35.393Z,18.90
2023-03-22T14:12:06.842Z,18.89
2023-03-22T14:17:39.350Z,18.88
